Time;durP1;ratioP1;P1;durP2;ratioP2;P2;SDS_P1;SDS_P2;PMS_P1;PMS_P2;Temp;Humidity;BMP_temperature;BMP_pressure;BME280_temperature;BME280_humidity;BME280_pressure;Samples;Min_cycle;Max_cycle;Signal;HPM_P1;HPM_P2
2021/07/25 00:00:14;;;;;;;82.60;61.10;;;17.60;99.90;;;;;;4214244;28;20020;-77
2021/07/25 00:02:15;;;;;;;74.22;58.72;;;17.50;99.90;;;;;;4196375;28;20066;-78
2021/07/25 00:04:15;;;;;;;73.20;61.75;;;17.50;99.90;;;;;;4196220;28;20035;-77
2021/07/25 00:06:17;;;;;;;75.32;61.65;;;17.40;99.90;;;;;;4208222;28;20087;-77
2021/07/25 00:08:17;;;;;;;78.55;63.58;;;17.40;99.90;;;;;;4213664;28;20491;-77
2021/07/25 00:10:19;;;;;;;76.05;61.88;;;17.40;99.90;;;;;;4214404;28;20024;-78
2021/07/25 00:12:19;;;;;;;84.40;65.15;;;17.30;99.90;;;;;;4196733;28;20077;-77
2021/07/25 00:14:21;;;;;;;89.65;67.60;;;17.30;99.90;;;;;;4195985;28;20427;-77
2021/07/25 00:16:27;;;;;;;86.53;64.75;;;17.20;99.90;;;;;;4196393;28;20040;-78
2021/07/25 00:18:28;;;;;;;84.15;63.63;;;17.20;99.90;;;;;;4195965;28;20027;-78
2021/07/25 00:20:28;;;;;;;86.78;63.20;;;17.20;99.90;;;;;;4213796;28;20387;-77
2021/07/25 00:22:29;;;;;;;87.53;64.22;;;17.20;99.90;;;;;;4201676;28;20087;-78
2021/07/25 00:24:32;;;;;;;86.25;67.07;;;17.20;99.90;;;;;;4211550;28;20028;-77
2021/07/25 00:26:38;;;;;;;89.18;66.03;;;17.20;99.90;;;;;;4195920;28;20028;-78
2021/07/25 00:28:40;;;;;;;84.68;64.20;;;17.20;99.90;;;;;;4196356;28;20120;-78
2021/07/25 00:30:40;;;;;;;75.63;62.78;;;17.20;99.90;;;;;;4213422;28;20032;-78
2021/07/25 00:32:41;;;;;;;90.25;68.03;;;17.20;99.90;;;;;;4214042;28;20020;-77
2021/07/25 00:34:44;;;;;;;87.18;66.22;;;17.20;99.90;;;;;;4213671;28;20024;-77
2021/07/25 00:36:44;;;;;;;88.55;63.72;;;17.20;99.90;;;;;;4195930;28;20032;-79
2021/07/25 00:38:45;;;;;;;87.25;67.65;;;17.20;99.90;;;;;;4195402;28;20056;-78
2021/07/25 00:40:47;;;;;;;92.53;68.63;;;17.30;99.90;;;;;;4213730;28;20027;-78
2021/07/25 00:42:49;;;;;;;92.87;68.57;;;17.30;99.90;;;;;;4195417;28;20021;-77
2021/07/25 00:44:51;;;;;;;97.22;68.70;;;17.40;99.90;;;;;;4213577;28;20063;-77
2021/07/25 00:46:57;;;;;;;94.05;70.55;;;17.40;99.90;;;;;;4198821;28;20081;-78
2021/07/25 00:49:00;;;;;;;97.53;70.07;;;17.50;99.90;;;;;;4195531;28;20111;-77
2021/07/25 00:51:04;;;;;;;91.72;69.15;;;17.50;99.90;;;;;;4195111;28;20072;-79
2021/07/25 00:53:04;;;;;;;98.70;71.93;;;17.60;99.90;;;;;;4213717;28;20016;-79
2021/07/25 00:55:05;;;;;;;89.00;68.40;;;17.60;99.90;;;;;;4213808;28;20317;-78
2021/07/25 00:57:07;;;;;;;89.15;67.50;;;17.70;99.90;;;;;;4195413;28;20048;-78
2021/07/25 00:59:08;;;;;;;95.70;72.30;;;17.60;99.90;;;;;;4213264;28;20020;-77
2021/07/25 01:01:11;;;;;;;93.75;68.13;;;17.60;99.90;;;;;;4201851;28;20115;-75
2021/07/25 01:03:38;;;;;;;91.35;67.47;;;17.50;99.90;;;;;;4195127;28;20056;-78
2021/07/25 01:05:48;;;;;;;97.78;73.82;;;17.50;99.90;;;;;;4213029;28;20085;-78
2021/07/25 01:08:02;;;;;;;96.80;73.07;;;17.50;99.90;;;;;;4199868;28;20051;-77
2021/07/25 01:10:23;;;;;;;99.68;72.03;;;17.50;99.90;;;;;;4213463;28;20058;-78
2021/07/25 01:12:45;;;;;;;96.38;72.50;;;17.50;99.90;;;;;;4182436;28;20116;-77
2021/07/25 01:14:48;;;;;;;99.68;73.15;;;17.40;99.90;;;;;;4200992;28;20164;-78
2021/07/25 01:16:49;;;;;;;;;;;17.40;99.90;;;;;;4195652;28;20029;-78
2021/07/25 01:18:50;;;;;;;100.25;74.78;;;17.40;99.90;;;;;;4213219;28;20331;-77
2021/07/25 01:20:54;;;;;;;106.03;75.07;;;17.40;99.90;;;;;;4212345;28;20479;-77
2021/07/25 01:22:58;;;;;;;97.47;71.45;;;17.40;99.90;;;;;;4212183;28;20047;-78
2021/07/25 01:25:00;;;;;;;96.78;70.75;;;17.50;99.90;;;;;;4194886;28;20029;-78
2021/07/25 01:27:00;;;;;;;94.35;69.90;;;17.50;99.90;;;;;;4212902;28;20040;-78
2021/07/25 01:29:04;;;;;;;94.95;72.40;;;17.50;99.90;;;;;;4194537;28;20028;-79
2021/07/25 01:31:15;;;;;;;95.45;71.80;;;17.50;99.90;;;;;;4212237;28;20433;-78
2021/07/25 01:33:20;;;;;;;88.28;68.00;;;17.50;99.90;;;;;;4195043;28;20028;-78
2021/07/25 01:35:23;;;;;;;93.20;68.78;;;17.50;99.90;;;;;;4194721;28;20039;-77
2021/07/25 01:37:26;;;;;;;101.07;73.85;;;17.50;99.90;;;;;;4192844;28;20037;-78
2021/07/25 01:39:27;;;;;;;95.95;74.78;;;17.40;99.90;;;;;;4210216;28;20028;-77
2021/07/25 01:41:27;;;;;;;103.90;72.15;;;17.40;99.90;;;;;;4194512;28;20025;-77
2021/07/25 01:43:29;;;;;;;92.80;68.97;;;17.40;99.90;;;;;;4212894;28;20064;-78
2021/07/25 01:45:30;;;;;;;103.70;76.00;;;17.40;99.90;;;;;;4203677;28;20024;-78
2021/07/25 01:47:32;;;;;;;111.30;80.18;;;17.40;99.90;;;;;;4212701;28;20030;-78
2021/07/25 01:49:32;;;;;;;109.90;76.82;;;17.40;99.90;;;;;;4212661;28;20476;-78
2021/07/25 01:51:34;;;;;;;106.80;78.90;;;17.40;99.90;;;;;;4194489;28;20032;-78
2021/07/25 01:53:34;;;;;;;102.93;78.60;;;17.40;99.90;;;;;;4195123;28;20033;-78
2021/07/25 01:55:35;;;;;;;110.35;77.50;;;17.40;99.90;;;;;;4192750;28;20121;-77
2021/07/25 01:57:36;;;;;;;113.07;80.88;;;17.50;99.90;;;;;;4180846;28;20044;-78
2021/07/25 01:59:36;;;;;;;118.00;81.47;;;17.40;99.90;;;;;;4211130;28;20413;-78
2021/07/25 02:01:37;;;;;;;112.55;81.30;;;17.50;99.90;;;;;;4211557;28;20035;-78
2021/07/25 02:03:39;;;;;;;109.10;81.50;;;17.50;99.90;;;;;;4211117;28;20040;-78
2021/07/25 02:05:39;;;;;;;118.63;84.60;;;17.50;99.90;;;;;;4211614;28;20031;-79
2021/07/25 02:07:40;;;;;;;129.32;88.47;;;17.50;99.90;;;;;;4211372;28;20424;-78
2021/07/25 02:09:40;;;;;;;126.80;86.15;;;17.50;99.90;;;;;;4193867;28;20024;-77
2021/07/25 02:11:41;;;;;;;113.80;83.75;;;17.50;99.90;;;;;;4210827;28;20060;-76
2021/07/25 02:13:42;;;;;;;119.70;84.07;;;17.50;99.90;;;;;;4199528;28;20033;-78
2021/07/25 02:15:43;;;;;;;116.47;82.57;;;17.50;99.90;;;;;;4174097;28;20056;-76
2021/07/25 02:17:44;;;;;;;113.57;84.28;;;17.50;99.90;;;;;;4194210;28;20139;-76
2021/07/25 02:19:45;;;;;;;119.05;84.68;;;17.50;99.90;;;;;;4212072;28;20399;-76
2021/07/25 02:21:45;;;;;;;120.85;85.45;;;17.40;99.90;;;;;;4210945;28;20432;-75
2021/07/25 02:23:46;;;;;;;119.32;80.18;;;17.30;99.90;;;;;;4194231;28;20033;-76
2021/07/25 02:25:47;;;;;;;126.03;86.65;;;17.30;99.90;;;;;;4211589;28;20031;-75
2021/07/25 02:27:47;;;;;;;128.65;88.28;;;17.20;99.90;;;;;;4194436;28;20135;-75
2021/07/25 02:29:48;;;;;;;139.60;92.03;;;17.20;99.90;;;;;;4180118;28;20053;-76
2021/07/25 02:31:49;;;;;;;142.95;91.18;;;17.20;99.90;;;;;;4211354;28;20085;-77
2021/07/25 02:33:50;;;;;;;144.48;93.97;;;17.10;99.90;;;;;;4194365;28;20110;-76
2021/07/25 02:35:51;;;;;;;132.93;87.82;;;17.00;99.90;;;;;;4194327;28;20032;-75
2021/07/25 02:37:52;;;;;;;136.70;88.28;;;17.00;99.90;;;;;;4212033;28;20376;-76
2021/07/25 02:39:54;;;;;;;144.48;92.68;;;16.90;99.90;;;;;;4210223;28;20034;-77
2021/07/25 02:41:56;;;;;;;143.75;86.88;;;16.90;99.90;;;;;;4200477;28;20092;-77
2021/07/25 02:43:56;;;;;;;142.90;88.93;;;16.80;99.90;;;;;;4212684;28;20036;-76
2021/07/25 02:45:57;;;;;;;147.65;95.68;;;16.90;99.90;;;;;;4212506;28;20035;-76
2021/07/25 02:47:58;;;;;;;156.30;94.75;;;16.80;99.90;;;;;;4194307;28;20036;-76
2021/07/25 02:50:00;;;;;;;160.13;92.47;;;16.80;99.90;;;;;;4212195;28;20059;-76
2021/07/25 02:52:02;;;;;;;159.30;96.07;;;16.70;99.90;;;;;;4194994;28;20063;-76
2021/07/25 02:54:03;;;;;;;163.65;95.10;;;16.70;99.90;;;;;;4214106;28;20020;-77
2021/07/25 02:56:04;;;;;;;160.93;94.32;;;16.70;99.90;;;;;;4215021;28;20066;-76
2021/07/25 02:58:05;;;;;;;156.50;90.13;;;16.80;99.90;;;;;;4196826;28;20051;-76
2021/07/25 03:00:07;;;;;;;154.38;95.50;;;16.70;99.90;;;;;;4214571;28;20750;-76
2021/07/25 03:02:08;;;;;;;155.68;92.95;;;16.70;99.90;;;;;;4197121;28;20043;-76
2021/07/25 03:04:09;;;;;;;146.70;88.07;;;16.70;99.90;;;;;;4212186;28;20111;-75
2021/07/25 03:06:09;;;;;;;166.27;93.25;;;16.60;99.90;;;;;;4193995;28;20037;-77
2021/07/25 03:08:10;;;;;;;155.48;94.45;;;16.50;99.90;;;;;;4195619;28;20078;-77
2021/07/25 03:10:11;;;;;;;160.13;93.53;;;16.50;99.90;;;;;;4211517;28;20476;-77
2021/07/25 03:12:12;;;;;;;160.15;94.40;;;16.50;99.90;;;;;;4209574;28;20046;-77
2021/07/25 03:14:12;;;;;;;162.63;95.85;;;16.50;99.90;;;;;;4196593;28;20036;-76
2021/07/25 03:16:17;;;;;;;177.43;96.82;;;16.50;99.90;;;;;;4209595;28;20040;-77
2021/07/25 03:18:17;;;;;;;157.75;90.90;;;16.40;99.90;;;;;;4195729;28;20492;-77
2021/07/25 03:20:19;;;;;;;166.80;94.05;;;16.40;99.90;;;;;;4196379;28;20052;-77
2021/07/25 03:22:20;;;;;;;161.55;94.40;;;16.30;99.90;;;;;;4195839;28;20028;-78
2021/07/25 03:24:21;;;;;;;176.18;96.57;;;16.30;99.90;;;;;;4190972;28;20041;-77
2021/07/25 03:26:23;;;;;;;179.95;97.68;;;16.40;99.90;;;;;;4192301;28;20025;-77
2021/07/25 03:28:23;;;;;;;175.57;97.55;;;16.30;99.90;;;;;;4192102;28;20021;-77
2021/07/25 03:30:24;;;;;;;167.05;89.78;;;16.30;99.90;;;;;;4194055;28;20025;-77
2021/07/25 03:32:25;;;;;;;172.85;92.35;;;16.40;99.90;;;;;;4186704;28;20021;-77
2021/07/25 03:34:31;;;;;;;163.23;90.88;;;16.40;99.90;;;;;;4197418;28;20028;-77
2021/07/25 03:36:32;;;;;;;173.10;96.68;;;16.30;99.90;;;;;;4184945;28;20040;-77
2021/07/25 03:38:32;;;;;;;170.23;96.50;;;16.40;99.90;;;;;;4195878;28;20047;-77
2021/07/25 03:40:34;;;;;;;171.88;96.38;;;16.50;99.90;;;;;;4192509;28;20131;-77
2021/07/25 03:42:35;;;;;;;167.80;91.68;;;16.40;99.90;;;;;;4190649;28;20534;-76
2021/07/25 03:44:38;;;;;;;174.30;97.03;;;16.50;99.90;;;;;;4193526;28;20036;-77
2021/07/25 03:46:39;;;;;;;165.25;95.97;;;16.50;99.90;;;;;;4193387;28;20417;-77
2021/07/25 03:48:40;;;;;;;156.10;86.13;;;16.40;99.90;;;;;;4193642;28;20028;-76
2021/07/25 03:50:42;;;;;;;172.52;92.75;;;16.30;99.90;;;;;;4196666;28;20037;-77
2021/07/25 03:52:42;;;;;;;146.23;87.00;;;16.30;99.90;;;;;;4194924;28;20115;-77
2021/07/25 03:54:43;;;;;;;156.98;88.70;;;16.20;99.90;;;;;;4195128;28;21554;-77
2021/07/25 03:56:44;;;;;;;150.35;86.53;;;16.20;99.90;;;;;;4195968;28;20036;-77
2021/07/25 03:58:44;;;;;;;159.63;86.97;;;16.20;99.90;;;;;;4196126;28;20059;-77
2021/07/25 04:00:45;;;;;;;153.93;87.05;;;16.10;99.90;;;;;;4190641;28;20024;-78
2021/07/25 04:02:46;;;;;;;156.40;86.60;;;16.10;99.90;;;;;;4195761;28;20036;-77
2021/07/25 04:04:47;;;;;;;162.98;88.03;;;16.10;99.90;;;;;;4195627;28;20028;-77
2021/07/25 04:06:47;;;;;;;164.25;88.60;;;16.10;99.90;;;;;;4196971;28;20029;-78
2021/07/25 04:08:48;;;;;;;141.77;78.22;;;16.10;99.90;;;;;;4196509;28;20045;-78
2021/07/25 04:10:49;;;;;;;141.27;80.07;;;16.20;99.90;;;;;;4187028;28;20025;-78
2021/07/25 04:12:51;;;;;;;163.00;87.68;;;16.20;99.90;;;;;;4186434;28;20098;-77
2021/07/25 04:14:52;;;;;;;149.95;82.43;;;16.20;99.90;;;;;;4193343;28;20037;-77
2021/07/25 04:16:52;;;;;;;157.38;86.72;;;16.20;99.90;;;;;;4192325;28;20302;-77
2021/07/25 04:18:53;;;;;;;146.20;83.28;;;16.20;99.90;;;;;;4189441;28;20419;-77
2021/07/25 04:20:54;;;;;;;142.13;76.82;;;16.30;99.90;;;;;;4197631;28;20032;-77
2021/07/25 04:22:55;;;;;;;136.55;80.30;;;16.40;99.90;;;;;;4194108;28;20044;-77
2021/07/25 04:24:56;;;;;;;135.80;78.38;;;16.40;99.90;;;;;;4187093;28;20432;-77
2021/07/25 04:26:58;;;;;;;138.30;79.00;;;16.40;99.90;;;;;;4189210;28;20395;-77
2021/07/25 04:28:59;;;;;;;144.25;80.28;;;16.40;99.90;;;;;;4206520;28;20106;-77
2021/07/25 04:31:00;;;;;;;146.48;84.90;;;16.40;99.90;;;;;;4210773;28;20059;-76
2021/07/25 04:33:02;;;;;;;125.82;75.40;;;16.50;99.90;;;;;;4195476;28;20041;-76
2021/07/25 04:35:03;;;;;;;142.23;77.95;;;16.50;99.90;;;;;;4195043;28;20027;-77
2021/07/25 04:37:10;;;;;;;136.43;77.47;;;16.50;99.90;;;;;;4187980;28;20147;-77
2021/07/25 04:39:11;;;;;;;124.60;75.78;;;16.60;99.90;;;;;;4191489;28;20032;-77
2021/07/25 04:41:12;;;;;;;126.32;75.85;;;16.70;99.90;;;;;;4210411;28;20024;-77
2021/07/25 04:43:16;;;;;;;126.03;71.30;;;16.70;99.90;;;;;;4209125;28;20367;-76
2021/07/25 04:45:47;;;;;;;122.03;73.35;;;16.80;99.90;;;;;;4212871;28;20020;-77
2021/07/25 04:47:52;;;;;;;127.15;74.43;;;16.80;99.90;;;;;;4168221;28;20031;-77
2021/07/25 04:50:01;;;;;;;112.90;68.47;;;16.90;99.90;;;;;;4213321;28;20032;-77
2021/07/25 04:52:03;;;;;;;112.70;69.68;;;17.00;99.90;;;;;;4208016;28;20024;-77
2021/07/25 04:54:12;;;;;;;103.10;68.50;;;17.10;99.90;;;;;;4205271;28;21311;-77
2021/07/25 04:56:14;;;;;;;100.15;64.75;;;17.20;99.90;;;;;;4190539;28;20126;-77
2021/07/25 04:58:14;;;;;;;98.65;60.88;;;17.20;99.90;;;;;;4209970;28;20020;-78
2021/07/25 05:00:15;;;;;;;94.85;58.65;;;17.30;99.90;;;;;;4193995;28;20573;-77
2021/07/25 05:02:19;;;;;;;88.00;59.60;;;17.40;99.90;;;;;;4212073;28;20082;-77
2021/07/25 05:04:22;;;;;;;86.20;58.58;;;17.50;99.90;;;;;;4208592;28;20498;-77
2021/07/25 05:06:23;;;;;;;85.05;55.42;;;17.50;99.90;;;;;;4203372;28;20033;-76
2021/07/25 05:08:26;;;;;;;80.53;52.97;;;17.50;99.90;;;;;;4212562;28;20031;-76
2021/07/25 05:10:28;;;;;;;78.15;53.10;;;17.60;99.90;;;;;;4207006;28;20024;-76
2021/07/25 05:12:33;;;;;;;73.65;50.47;;;17.60;99.90;;;;;;4189388;28;20036;-76
2021/07/25 05:14:59;;;;;;;65.30;50.83;;;17.70;99.90;;;;;;4194185;28;20656;-76
2021/07/25 05:17:18;;;;;;;62.10;46.15;;;17.80;99.90;;;;;;4211971;28;20063;-77
2021/07/25 05:19:37;;;;;;;60.80;46.13;;;17.80;99.90;;;;;;4208003;28;20064;-76
2021/07/25 05:21:43;;;;;;;55.70;41.63;;;17.90;99.90;;;;;;4209943;28;20037;-76
2021/07/25 05:23:47;;;;;;;51.13;41.13;;;18.00;99.90;;;;;;4194499;28;20024;-76
2021/07/25 05:25:52;;;;;;;42.33;34.55;;;18.10;99.90;;;;;;4212428;28;20487;-76
2021/07/25 05:27:54;;;;;;;41.53;33.70;;;18.30;99.90;;;;;;4191296;28;20029;-76
2021/07/25 05:29:56;;;;;;;38.65;33.20;;;18.40;99.90;;;;;;4212664;28;20650;-76
2021/07/25 05:31:57;;;;;;;31.95;28.38;;;18.40;99.90;;;;;;4208425;28;20028;-76
2021/07/25 05:34:01;;;;;;;33.17;28.95;;;18.40;99.90;;;;;;4209809;28;20486;-76
2021/07/25 05:36:02;;;;;;;33.55;27.17;;;18.50;99.90;;;;;;4200935;28;20016;-76
2021/07/25 05:38:03;;;;;;;31.92;28.13;;;18.50;99.90;;;;;;4212951;28;20420;-76
2021/07/25 05:40:05;;;;;;;30.30;27.10;;;18.40;99.90;;;;;;4194427;28;20064;-76
2021/07/25 05:42:06;;;;;;;32.78;27.17;;;18.30;99.90;;;;;;4210002;28;20100;-76
2021/07/25 05:44:07;;;;;;;28.13;22.27;;;18.30;99.90;;;;;;4210001;28;20032;-75
2021/07/25 05:46:08;;;;;;;28.00;23.50;;;18.40;99.90;;;;;;4187287;28;20116;-76
2021/07/25 05:48:10;;;;;;;24.95;21.90;;;18.40;99.90;;;;;;4206741;28;20466;-75
2021/07/25 05:50:12;;;;;;;29.05;21.95;;;18.40;99.90;;;;;;4212725;28;20035;-77
2021/07/25 05:52:12;;;;;;;26.05;21.88;;;18.50;99.90;;;;;;4212990;28;20040;-76
2021/07/25 05:54:13;;;;;;;23.33;20.83;;;18.60;99.90;;;;;;4211797;28;20089;-79
2021/07/25 05:56:14;;;;;;;27.27;20.38;;;18.70;99.90;;;;;;4190618;28;20029;-76
2021/07/25 05:58:15;;;;;;;24.70;21.33;;;18.80;99.90;;;;;;4215624;28;20040;-75
2021/07/25 06:00:16;;;;;;;22.70;18.77;;;19.00;99.90;;;;;;4190177;28;20390;-75
2021/07/25 06:02:16;;;;;;;19.63;17.63;;;19.10;99.90;;;;;;4206733;28;20119;-75
2021/07/25 06:04:17;;;;;;;19.27;16.95;;;19.20;99.90;;;;;;4202878;28;20534;-77
2021/07/25 06:06:18;;;;;;;21.10;15.75;;;19.30;99.90;;;;;;4212065;28;20035;-77
2021/07/25 06:08:18;;;;;;;19.83;15.93;;;19.40;99.90;;;;;;4199236;28;20027;-77
2021/07/25 06:10:21;;;;;;;20.65;14.88;;;19.50;99.90;;;;;;4192117;28;20044;-77
2021/07/25 06:12:21;;;;;;;20.55;16.40;;;19.70;99.90;;;;;;4212279;28;20032;-77
2021/07/25 06:14:22;;;;;;;19.27;16.15;;;19.70;99.90;;;;;;4194006;28;20032;-78
2021/07/25 06:16:22;;;;;;;16.73;14.52;;;19.90;99.90;;;;;;4193792;28;20036;-77
2021/07/25 06:18:23;;;;;;;14.82;13.32;;;20.00;99.90;;;;;;4194739;28;20056;-78
2021/07/25 06:20:24;;;;;;;15.75;13.13;;;20.10;99.90;;;;;;4194296;28;20033;-78
2021/07/25 06:22:24;;;;;;;15.50;13.45;;;20.10;99.90;;;;;;4212687;28;21895;-78
2021/07/25 06:24:26;;;;;;;22.70;15.02;;;20.00;99.90;;;;;;4212711;28;20487;-78
2021/07/25 06:26:26;;;;;;;15.27;13.00;;;20.00;99.90;;;;;;4195676;28;20365;-77
2021/07/25 06:28:27;;;;;;;14.27;12.43;;;20.10;99.90;;;;;;4212872;28;20106;-77
2021/07/25 06:30:28;;;;;;;15.70;13.80;;;20.20;99.90;;;;;;4215665;28;20027;-78
2021/07/25 06:32:29;;;;;;;14.30;12.85;;;20.30;99.90;;;;;;4196987;28;20424;-77
2021/07/25 06:34:31;;;;;;;14.65;12.85;;;20.30;99.90;;;;;;4197614;28;20025;-78
2021/07/25 06:36:33;;;;;;;16.63;12.95;;;20.40;99.90;;;;;;4197605;28;20074;-77
2021/07/25 06:38:34;;;;;;;16.83;13.48;;;20.30;99.90;;;;;;4210533;28;20028;-77
2021/07/25 06:40:36;;;;;;;17.90;13.73;;;20.40;99.90;;;;;;4197541;28;20576;-76
2021/07/25 06:42:37;;;;;;;17.17;12.93;;;20.20;99.90;;;;;;4197108;28;20532;-77
2021/07/25 06:44:38;;;;;;;17.75;13.18;;;20.30;99.90;;;;;;4214988;28;20028;-78
2021/07/25 06:46:39;;;;;;;18.95;11.75;;;20.20;99.90;;;;;;4215547;28;20036;-78
2021/07/25 06:48:39;;;;;;;16.63;13.75;;;20.30;99.90;;;;;;4193734;28;20081;-76
2021/07/25 06:50:40;;;;;;;16.58;13.88;;;20.20;99.90;;;;;;4196519;28;20024;-75
2021/07/25 06:52:41;;;;;;;17.38;12.77;;;20.00;99.90;;;;;;4193942;28;20055;-77
2021/07/25 06:54:42;;;;;;;13.43;12.02;;;20.00;99.90;;;;;;4196537;28;20480;-76
2021/07/25 06:56:43;;;;;;;16.73;13.77;;;19.90;99.90;;;;;;4211510;28;20020;-75
2021/07/25 06:58:44;;;;;;;20.10;14.85;;;20.00;99.90;;;;;;4176675;28;20054;-74
2021/07/25 07:00:45;;;;;;;15.75;13.73;;;20.00;99.90;;;;;;4193121;28;20045;-75
2021/07/25 07:02:56;;;;;;;16.50;14.10;;;20.00;99.90;;;;;;4211908;28;20042;-76
2021/07/25 07:04:56;;;;;;;15.68;14.05;;;20.00;99.90;;;;;;4210415;28;20020;-75
2021/07/25 07:06:57;;;;;;;17.58;14.73;;;20.00;99.90;;;;;;4192192;28;20032;-75
2021/07/25 07:08:57;;;;;;;17.23;14.02;;;20.00;99.90;;;;;;4211237;28;20360;-75
2021/07/25 07:10:58;;;;;;;19.25;14.13;;;20.10;99.90;;;;;;4191316;28;20057;-77
2021/07/25 07:13:02;;;;;;;14.15;12.43;;;20.20;99.90;;;;;;4191925;28;20162;-75
2021/07/25 07:15:05;;;;;;;14.10;12.30;;;20.30;99.90;;;;;;4210995;28;20387;-76
2021/07/25 07:17:06;;;;;;;13.88;11.73;;;20.40;99.90;;;;;;4191357;28;20203;-76
2021/07/25 07:19:06;;;;;;;17.40;12.32;;;20.40;99.90;;;;;;4211753;28;20036;-77
2021/07/25 07:21:07;;;;;;;16.38;13.48;;;20.40;99.90;;;;;;4196216;28;20045;-76
2021/07/25 07:23:10;;;;;;;19.63;12.00;;;20.40;99.90;;;;;;4190207;28;20055;-76
2021/07/25 07:25:11;;;;;;;17.55;12.43;;;20.60;99.90;;;;;;4192806;28;20523;-77
2021/07/25 07:27:11;;;;;;;14.70;10.98;;;20.70;99.90;;;;;;4191952;28;20082;-78
2021/07/25 07:29:13;;;;;;;13.13;11.15;;;20.80;99.90;;;;;;4193152;28;20147;-76
2021/07/25 07:31:13;;;;;;;17.20;10.70;;;20.80;99.90;;;;;;4191459;28;20080;-76
2021/07/25 07:33:20;;;;;;;12.88;10.88;;;20.90;99.90;;;;;;4197285;28;20029;-78
2021/07/25 07:35:23;;;;;;;17.08;11.23;;;21.00;99.90;;;;;;4192656;28;20043;-78
2021/07/25 07:37:23;;;;;;;13.18;11.77;;;21.10;99.90;;;;;;4192758;28;20442;-77
2021/07/25 07:39:25;;;;;;;14.30;11.68;;;21.20;99.90;;;;;;4211892;28;20048;-77
2021/07/25 07:41:25;;;;;;;15.45;11.52;;;21.20;99.90;;;;;;4190687;28;20059;-77
2021/07/25 07:43:26;;;;;;;13.35;10.70;;;21.30;99.90;;;;;;4193001;28;20044;-77
2021/07/25 07:45:28;;;;;;;12.77;11.27;;;21.30;99.90;;;;;;4210486;28;20044;-76
2021/07/25 07:47:28;;;;;;;15.02;11.63;;;21.50;99.90;;;;;;4196214;28;20039;-77
2021/07/25 07:49:30;;;;;;;14.10;11.32;;;21.60;99.90;;;;;;4192930;28;20052;-78
2021/07/25 07:51:32;;;;;;;12.25;11.05;;;21.60;99.90;;;;;;4190561;28;20029;-78
2021/07/25 07:53:35;;;;;;;14.13;12.13;;;21.70;99.90;;;;;;4194341;28;20025;-76
2021/07/25 07:55:35;;;;;;;12.70;11.50;;;21.80;99.90;;;;;;4193315;28;20032;-77
2021/07/25 07:57:36;;;;;;;14.35;11.90;;;22.10;99.90;;;;;;4188670;28;20400;-79
2021/07/25 07:59:38;;;;;;;16.38;11.07;;;22.00;99.90;;;;;;4188847;28;20025;-78
2021/07/25 08:01:39;;;;;;;12.43;11.13;;;22.00;99.90;;;;;;4193785;28;20033;-78
2021/07/25 08:03:40;;;;;;;16.05;11.10;;;22.20;99.90;;;;;;4196096;28;20342;-78
2021/07/25 08:05:40;;;;;;;12.45;9.43;;;22.40;99.90;;;;;;4191620;28;20059;-78
2021/07/25 08:07:41;;;;;;;11.55;9.65;;;22.70;99.90;;;;;;4188335;28;20032;-79
2021/07/25 08:09:41;;;;;;;11.27;10.10;;;22.80;99.90;;;;;;4196722;28;20033;-80
2021/07/25 08:11:45;;;;;;;11.13;10.02;;;23.00;99.90;;;;;;4195843;28;20549;-78
2021/07/25 08:13:46;;;;;;;14.18;11.63;;;23.40;99.90;;;;;;4197209;28;20373;-81
2021/07/25 08:15:48;;;;;;;11.93;10.65;;;23.30;99.90;;;;;;4197607;28;20029;-80
2021/07/25 08:17:48;;;;;;;16.30;12.38;;;23.10;99.90;;;;;;4179169;28;20048;-79
2021/07/25 08:19:49;;;;;;;13.30;11.90;;;23.10;99.90;;;;;;4191121;28;20392;-79
2021/07/25 08:21:50;;;;;;;13.15;11.95;;;23.00;99.90;;;;;;4209817;28;20084;-79
2021/07/25 08:23:50;;;;;;;12.25;11.05;;;22.90;99.90;;;;;;4205501;28;20519;-78
2021/07/25 08:25:51;;;;;;;14.25;11.60;;;23.10;99.90;;;;;;4189612;28;20032;-77
2021/07/25 08:27:51;;;;;;;13.90;12.27;;;23.10;99.90;;;;;;4194676;28;20464;-78
2021/07/25 08:29:52;;;;;;;13.02;11.13;;;23.10;99.90;;;;;;4170439;28;20192;-78
2021/07/25 08:31:54;;;;;;;14.07;12.68;;;22.90;99.90;;;;;;4210752;28;20040;-78
2021/07/25 08:33:55;;;;;;;29.35;25.63;;;23.10;99.90;;;;;;4210155;28;20055;-77
2021/07/25 08:35:56;;;;;;;15.52;12.30;;;23.10;99.90;;;;;;4194197;28;20028;-78
2021/07/25 08:37:58;;;;;;;15.55;13.32;;;23.30;99.90;;;;;;4206392;28;20107;-78
2021/07/25 08:40:01;;;;;;;14.05;12.15;;;23.50;99.90;;;;;;4206600;28;20566;-78
2021/07/25 08:42:04;;;;;;;15.73;12.68;;;23.80;99.90;;;;;;4194059;28;20025;-78
2021/07/25 08:44:22;;;;;;;13.75;12.40;;;24.10;99.90;;;;;;4191171;28;20051;-78
2021/07/25 08:46:23;;;;;;;17.58;11.35;;;;;;;;;;4192434;28;20075;-78
2021/07/25 08:48:32;;;;;;;13.77;12.13;;;24.20;99.90;;;;;;4204857;28;20033;-79
2021/07/25 08:50:40;;;;;;;17.25;13.43;;;24.10;99.90;;;;;;4187662;28;20035;-79
2021/07/25 08:52:43;;;;;;;14.40;11.13;;;24.30;99.90;;;;;;4191695;28;20036;-80
2021/07/25 08:54:44;;;;;;;13.02;11.75;;;24.30;99.90;;;;;;4209485;28;20036;-80
2021/07/25 08:56:49;;;;;;;12.45;11.25;;;24.20;99.90;;;;;;4194892;28;20095;-80
2021/07/25 08:58:52;;;;;;;12.50;10.93;;;24.50;99.90;;;;;;4199777;28;20020;-80
2021/07/25 09:00:53;;;;;;;12.50;11.20;;;24.60;99.90;;;;;;4207628;28;20037;-81
2021/07/25 09:02:58;;;;;;;13.60;11.57;;;24.90;99.90;;;;;;4210159;28;20016;-79
2021/07/25 09:05:01;;;;;;;15.00;11.00;;;25.10;99.90;;;;;;4208286;28;20028;-80
2021/07/25 09:07:03;;;;;;;18.42;14.40;;;25.20;99.90;;;;;;4190713;28;20115;-80
2021/07/25 09:09:04;;;;;;;15.50;12.23;;;24.90;99.90;;;;;;4204229;28;20165;-80
2021/07/25 09:11:09;;;;;;;14.57;13.23;;;24.70;99.90;;;;;;4195005;28;20032;-78
2021/07/25 09:13:11;;;;;;;18.42;12.43;;;24.90;99.90;;;;;;4196716;28;20038;-80
2021/07/25 09:15:19;;;;;;;15.05;13.43;;;25.20;99.90;;;;;;4194350;28;20028;-81
2021/07/25 09:17:22;;;;;;;18.10;12.85;;;25.30;99.90;;;;;;4209048;28;20399;-79
2021/07/25 09:19:23;;;;;;;16.88;13.05;;;25.40;99.90;;;;;;4195303;28;20028;-80
2021/07/25 09:21:37;;;;;;;13.93;12.30;;;25.40;99.90;;;;;;4213199;28;20032;-83
2021/07/25 09:23:39;;;;;;;17.42;14.63;;;25.60;99.90;;;;;;4212610;28;20024;-80
2021/07/25 09:25:45;;;;;;;13.98;12.57;;;25.80;99.90;;;;;;4194984;28;20626;-79
2021/07/25 09:28:09;;;;;;;16.45;13.73;;;26.10;99.90;;;;;;4212914;28;20081;-80
2021/07/25 09:30:20;;;;;;;13.85;12.55;;;26.20;99.90;;;;;;4194837;28;20554;-80
2021/07/25 09:32:21;;;;;;;16.08;10.88;;;26.00;99.90;;;;;;4199585;28;20033;-80
2021/07/25 09:34:55;;;;;;;11.32;10.15;;;26.00;99.90;;;;;;4192776;28;20036;-82
2021/07/25 09:37:13;;;;;;;11.63;10.13;;;25.90;99.90;;;;;;4166870;28;20036;-81
2021/07/25 09:39:14;;;;;;;12.43;10.73;;;26.10;99.90;;;;;;4212090;28;20028;-81
2021/07/25 09:41:33;;;;;;;10.50;9.18;;;26.20;99.90;;;;;;4212385;28;20024;-80
2021/07/25 09:43:34;;;;;;;9.75;8.75;;;26.30;99.90;;;;;;4194415;28;20491;-80
2021/07/25 09:45:59;;;;;;;13.10;9.68;;;26.60;99.90;;;;;;4194316;28;20040;-80
2021/07/25 09:48:10;;;;;;;11.98;9.60;;;26.80;99.90;;;;;;4183386;28;20117;-80
2021/07/25 09:50:13;;;;;;;15.75;10.52;;;26.90;99.90;;;;;;4190590;28;20037;-78
2021/07/25 09:52:15;;;;;;;12.20;10.68;;;27.20;99.90;;;;;;4205959;28;20672;-79
2021/07/25 09:54:24;;;;;;;12.37;10.83;;;27.30;99.90;;;;;;4194797;28;20486;-80
2021/07/25 09:56:27;;;;;;;11.10;9.88;;;27.20;99.90;;;;;;4202243;28;20040;-78
2021/07/25 09:58:34;;;;;;;12.75;9.75;;;27.40;99.90;;;;;;4185884;28;20032;-79
2021/07/25 10:00:46;;;;;;;10.75;8.95;;;27.70;99.90;;;;;;4206163;28;20543;-78
2021/07/25 10:02:47;;;;;;;9.77;8.77;;;27.80;99.90;;;;;;4208161;28;20028;-78
2021/07/25 10:05:05;;;;;;;10.88;8.43;;;27.90;99.90;;;;;;4215512;28;20032;-79
2021/07/25 10:07:05;;;;;;;11.18;6.63;;;28.00;99.90;;;;;;4196703;28;20403;-80
2021/07/25 10:09:13;;;;;;;9.60;8.32;;;28.30;99.90;;;;;;4196786;28;20040;-78
2021/07/25 10:11:19;;;;;;;9.25;7.57;;;28.50;99.90;;;;;;4215152;28;20055;-79
2021/07/25 10:13:23;;;;;;;9.57;6.97;;;28.20;99.90;;;;;;4214904;28;20077;-77
2021/07/25 10:15:25;;;;;;;8.00;7.03;;;28.30;99.90;;;;;;4196170;28;20540;-77
2021/07/25 10:17:26;;;;;;;7.65;6.95;;;28.60;99.90;;;;;;4214515;28;20028;-76
2021/07/25 10:19:31;;;;;;;9.80;6.50;;;28.60;99.90;;;;;;4194595;28;20036;-77
2021/07/25 10:21:33;;;;;;;7.35;6.28;;;28.80;99.90;;;;;;4194319;28;20128;-77